sensor_id;sensor_type;location;lat;lon;timestamp;P1;durP1;ratioP1;P2;durP2;ratioP2
17422;SDS011;8829;47.932;7.810;2023-06-22T00:00:03;8.27;;;3.63;;
17422;SDS011;8829;47.932;7.810;2023-06-22T00:02:36;6.60;;;3.50;;
17422;SDS011;8829;47.932;7.810;2023-06-22T00:05:03;5.63;;;3.43;;
17422;SDS011;8829;47.932;7.810;2023-06-22T00:07:30;10.53;;;3.70;;
17422;SDS011;8829;47.932;7.810;2023-06-22T00:09:57;7.47;;;4.13;;
17422;SDS011;8829;47.932;7.810;2023-06-22T00:12:24;7.03;;;3.93;;
17422;SDS011;8829;47.932;7.810;2023-06-22T00:14:52;6.50;;;3.47;;
17422;SDS011;8829;47.932;7.810;2023-06-22T00:17:18;4.30;;;3.90;;
17422;SDS011;8829;47.932;7.810;2023-06-22T00:19:46;6.13;;;3.67;;
17422;SDS011;8829;47.932;7.810;2023-06-22T00:22:18;9.77;;;3.63;;
17422;SDS011;8829;47.932;7.810;2023-06-22T00:24:46;5.63;;;3.90;;
17422;SDS011;8829;47.932;7.810;2023-06-22T00:27:13;4.20;;;3.07;;
17422;SDS011;8829;47.932;7.810;2023-06-22T00:29:39;8.53;;;3.63;;
17422;SDS011;8829;47.932;7.810;2023-06-22T00:32:08;7.13;;;3.80;;
17422;SDS011;8829;47.932;7.810;2023-06-22T00:34:34;3.80;;;3.30;;
17422;SDS011;8829;47.932;7.810;2023-06-22T00:37:01;4.67;;;3.50;;
17422;SDS011;8829;47.932;7.810;2023-06-22T00:39:28;7.00;;;4.33;;
17422;SDS011;8829;47.932;7.810;2023-06-22T00:41:54;6.37;;;3.80;;
17422;SDS011;8829;47.932;7.810;2023-06-22T00:44:21;7.20;;;4.53;;
17422;SDS011;8829;47.932;7.810;2023-06-22T00:46:48;6.27;;;3.80;;
17422;SDS011;8829;47.932;7.810;2023-06-22T00:49:16;7.77;;;4.20;;
17422;SDS011;8829;47.932;7.810;2023-06-22T00:51:43;10.13;;;6.17;;
17422;SDS011;8829;47.932;7.810;2023-06-22T00:54:10;7.57;;;4.27;;
17422;SDS011;8829;47.932;7.810;2023-06-22T00:56:39;7.53;;;4.07;;
17422;SDS011;8829;47.932;7.810;2023-06-22T00:59:07;9.00;;;4.10;;
17422;SDS011;8829;47.932;7.810;2023-06-22T01:01:37;10.70;;;4.17;;
17422;SDS011;8829;47.932;7.810;2023-06-22T01:04:06;6.97;;;4.23;;
17422;SDS011;8829;47.932;7.810;2023-06-22T01:06:35;6.70;;;4.20;;
17422;SDS011;8829;47.932;7.810;2023-06-22T01:09:12;5.67;;;3.93;;
17422;SDS011;8829;47.932;7.810;2023-06-22T01:11:41;7.13;;;3.80;;
17422;SDS011;8829;47.932;7.810;2023-06-22T01:14:12;9.17;;;4.03;;
17422;SDS011;8829;47.932;7.810;2023-06-22T01:16:44;7.03;;;4.13;;
17422;SDS011;8829;47.932;7.810;2023-06-22T01:19:17;7.10;;;3.63;;
17422;SDS011;8829;47.932;7.810;2023-06-22T01:21:56;8.10;;;3.47;;
17422;SDS011;8829;47.932;7.810;2023-06-22T01:24:27;6.40;;;3.83;;
17422;SDS011;8829;47.932;7.810;2023-06-22T01:27:04;11.00;;;4.03;;
17422;SDS011;8829;47.932;7.810;2023-06-22T01:29:41;4.20;;;3.70;;
17422;SDS011;8829;47.932;7.810;2023-06-22T01:32:09;5.17;;;4.00;;
17422;SDS011;8829;47.932;7.810;2023-06-22T01:34:37;6.73;;;3.80;;
17422;SDS011;8829;47.932;7.810;2023-06-22T01:37:05;6.03;;;4.03;;
17422;SDS011;8829;47.932;7.810;2023-06-22T01:39:33;7.13;;;4.20;;
17422;SDS011;8829;47.932;7.810;2023-06-22T01:42:00;10.00;;;4.93;;
17422;SDS011;8829;47.932;7.810;2023-06-22T01:44:30;7.00;;;4.00;;
17422;SDS011;8829;47.932;7.810;2023-06-22T01:46:59;4.60;;;3.70;;
17422;SDS011;8829;47.932;7.810;2023-06-22T01:49:25;8.03;;;4.30;;
17422;SDS011;8829;47.932;7.810;2023-06-22T01:51:53;7.57;;;4.50;;
17422;SDS011;8829;47.932;7.810;2023-06-22T01:54:19;7.93;;;3.83;;
17422;SDS011;8829;47.932;7.810;2023-06-22T01:56:46;4.43;;;3.90;;
17422;SDS011;8829;47.932;7.810;2023-06-22T01:59:14;6.57;;;4.10;;
17422;SDS011;8829;47.932;7.810;2023-06-22T02:01:49;9.27;;;4.20;;
17422;SDS011;8829;47.932;7.810;2023-06-22T02:04:27;5.37;;;4.00;;
17422;SDS011;8829;47.932;7.810;2023-06-22T02:06:58;4.83;;;3.77;;
17422;SDS011;8829;47.932;7.810;2023-06-22T02:09:27;8.57;;;4.80;;
17422;SDS011;8829;47.932;7.810;2023-06-22T02:11:57;5.10;;;4.23;;
17422;SDS011;8829;47.932;7.810;2023-06-22T02:14:26;8.60;;;4.13;;
17422;SDS011;8829;47.932;7.810;2023-06-22T02:16:53;9.63;;;4.80;;
17422;SDS011;8829;47.932;7.810;2023-06-22T02:19:26;10.27;;;4.67;;
17422;SDS011;8829;47.932;7.810;2023-06-22T02:21:58;6.83;;;4.67;;
17422;SDS011;8829;47.932;7.810;2023-06-22T02:24:25;4.93;;;4.30;;
17422;SDS011;8829;47.932;7.810;2023-06-22T02:26:51;7.90;;;4.30;;
17422;SDS011;8829;47.932;7.810;2023-06-22T02:29:18;5.30;;;3.87;;
17422;SDS011;8829;47.932;7.810;2023-06-22T02:31:45;7.20;;;4.17;;
17422;SDS011;8829;47.932;7.810;2023-06-22T02:34:11;10.73;;;4.30;;
17422;SDS011;8829;47.932;7.810;2023-06-22T02:36:44;4.57;;;4.17;;
17422;SDS011;8829;47.932;7.810;2023-06-22T02:39:15;7.17;;;4.10;;
17422;SDS011;8829;47.932;7.810;2023-06-22T02:41:43;7.97;;;4.33;;
17422;SDS011;8829;47.932;7.810;2023-06-22T02:44:09;6.27;;;4.10;;
17422;SDS011;8829;47.932;7.810;2023-06-22T02:46:36;11.40;;;3.80;;
17422;SDS011;8829;47.932;7.810;2023-06-22T02:49:03;9.67;;;4.43;;
17422;SDS011;8829;47.932;7.810;2023-06-22T02:51:30;12.73;;;4.23;;
17422;SDS011;8829;47.932;7.810;2023-06-22T02:54:01;7.53;;;4.00;;
17422;SDS011;8829;47.932;7.810;2023-06-22T02:56:28;5.33;;;4.60;;
17422;SDS011;8829;47.932;7.810;2023-06-22T02:58:55;7.13;;;4.43;;
17422;SDS011;8829;47.932;7.810;2023-06-22T03:01:26;7.17;;;4.03;;
17422;SDS011;8829;47.932;7.810;2023-06-22T03:03:53;8.10;;;4.37;;
17422;SDS011;8829;47.932;7.810;2023-06-22T03:06:19;5.80;;;4.00;;
17422;SDS011;8829;47.932;7.810;2023-06-22T03:08:48;8.40;;;4.00;;
17422;SDS011;8829;47.932;7.810;2023-06-22T03:11:16;9.77;;;4.03;;
17422;SDS011;8829;47.932;7.810;2023-06-22T03:13:43;8.23;;;3.83;;
17422;SDS011;8829;47.932;7.810;2023-06-22T03:16:11;6.27;;;3.53;;
17422;SDS011;8829;47.932;7.810;2023-06-22T03:18:38;8.10;;;4.10;;
17422;SDS011;8829;47.932;7.810;2023-06-22T03:21:04;10.07;;;4.07;;
17422;SDS011;8829;47.932;7.810;2023-06-22T03:23:31;9.83;;;3.73;;
17422;SDS011;8829;47.932;7.810;2023-06-22T03:25:58;7.50;;;4.00;;
17422;SDS011;8829;47.932;7.810;2023-06-22T03:28:26;9.53;;;4.10;;
17422;SDS011;8829;47.932;7.810;2023-06-22T03:30:53;6.40;;;3.80;;
17422;SDS011;8829;47.932;7.810;2023-06-22T03:33:20;10.33;;;3.73;;
17422;SDS011;8829;47.932;7.810;2023-06-22T03:35:47;5.77;;;3.60;;
17422;SDS011;8829;47.932;7.810;2023-06-22T03:38:14;10.60;;;4.40;;
17422;SDS011;8829;47.932;7.810;2023-06-22T03:40:40;11.63;;;3.93;;
17422;SDS011;8829;47.932;7.810;2023-06-22T03:43:07;5.37;;;4.30;;
17422;SDS011;8829;47.932;7.810;2023-06-22T03:45:35;14.67;;;4.70;;
17422;SDS011;8829;47.932;7.810;2023-06-22T03:48:02;8.50;;;4.70;;
17422;SDS011;8829;47.932;7.810;2023-06-22T03:50:29;8.87;;;4.10;;
17422;SDS011;8829;47.932;7.810;2023-06-22T03:52:55;6.90;;;4.23;;
17422;SDS011;8829;47.932;7.810;2023-06-22T03:55:22;14.40;;;4.40;;
17422;SDS011;8829;47.932;7.810;2023-06-22T03:57:49;9.93;;;4.57;;
17422;SDS011;8829;47.932;7.810;2023-06-22T04:00:16;7.33;;;3.63;;
17422;SDS011;8829;47.932;7.810;2023-06-22T04:02:44;5.33;;;3.47;;
17422;SDS011;8829;47.932;7.810;2023-06-22T04:05:10;7.47;;;4.10;;
17422;SDS011;8829;47.932;7.810;2023-06-22T04:07:37;7.20;;;4.43;;
17422;SDS011;8829;47.932;7.810;2023-06-22T04:10:04;8.40;;;4.80;;
17422;SDS011;8829;47.932;7.810;2023-06-22T04:12:32;9.13;;;4.40;;
17422;SDS011;8829;47.932;7.810;2023-06-22T04:14:58;5.67;;;3.93;;
17422;SDS011;8829;47.932;7.810;2023-06-22T04:17:25;8.30;;;4.27;;
17422;SDS011;8829;47.932;7.810;2023-06-22T04:19:53;8.00;;;5.10;;
17422;SDS011;8829;47.932;7.810;2023-06-22T04:22:20;6.43;;;4.10;;
17422;SDS011;8829;47.932;7.810;2023-06-22T04:24:46;12.87;;;5.03;;
17422;SDS011;8829;47.932;7.810;2023-06-22T04:27:13;8.63;;;4.60;;
17422;SDS011;8829;47.932;7.810;2023-06-22T04:29:40;10.77;;;4.37;;
17422;SDS011;8829;47.932;7.810;2023-06-22T04:32:13;6.97;;;4.20;;
17422;SDS011;8829;47.932;7.810;2023-06-22T04:34:40;6.80;;;4.20;;
17422;SDS011;8829;47.932;7.810;2023-06-22T04:37:08;6.23;;;3.97;;
17422;SDS011;8829;47.932;7.810;2023-06-22T04:39:40;6.47;;;3.67;;
17422;SDS011;8829;47.932;7.810;2023-06-22T04:42:07;10.73;;;3.97;;
17422;SDS011;8829;47.932;7.810;2023-06-22T04:44:33;11.53;;;4.60;;
17422;SDS011;8829;47.932;7.810;2023-06-22T04:47:01;7.33;;;4.43;;
17422;SDS011;8829;47.932;7.810;2023-06-22T04:49:31;9.73;;;4.33;;
17422;SDS011;8829;47.932;7.810;2023-06-22T04:51:59;7.97;;;5.10;;
17422;SDS011;8829;47.932;7.810;2023-06-22T04:54:27;9.13;;;5.17;;
17422;SDS011;8829;47.932;7.810;2023-06-22T04:56:54;6.70;;;4.93;;
17422;SDS011;8829;47.932;7.810;2023-06-22T04:59:22;6.40;;;4.73;;
17422;SDS011;8829;47.932;7.810;2023-06-22T05:01:53;6.70;;;4.80;;
17422;SDS011;8829;47.932;7.810;2023-06-22T05:04:21;6.97;;;4.77;;
17422;SDS011;8829;47.932;7.810;2023-06-22T05:06:48;7.87;;;4.40;;
17422;SDS011;8829;47.932;7.810;2023-06-22T05:09:15;4.83;;;4.40;;
17422;SDS011;8829;47.932;7.810;2023-06-22T05:11:43;6.57;;;3.93;;
17422;SDS011;8829;47.932;7.810;2023-06-22T05:14:10;6.40;;;4.27;;
17422;SDS011;8829;47.932;7.810;2023-06-22T05:16:37;8.40;;;4.50;;
17422;SDS011;8829;47.932;7.810;2023-06-22T05:19:04;7.87;;;3.77;;
17422;SDS011;8829;47.932;7.810;2023-06-22T05:21:31;6.90;;;4.10;;
17422;SDS011;8829;47.932;7.810;2023-06-22T05:23:58;6.47;;;3.67;;
17422;SDS011;8829;47.932;7.810;2023-06-22T05:26:27;11.00;;;4.57;;
17422;SDS011;8829;47.932;7.810;2023-06-22T05:28:56;9.10;;;4.20;;
17422;SDS011;8829;47.932;7.810;2023-06-22T05:31:24;5.67;;;4.73;;
17422;SDS011;8829;47.932;7.810;2023-06-22T05:33:51;7.33;;;5.43;;
17422;SDS011;8829;47.932;7.810;2023-06-22T05:36:19;7.30;;;4.90;;
17422;SDS011;8829;47.932;7.810;2023-06-22T05:38:50;10.10;;;4.53;;
17422;SDS011;8829;47.932;7.810;2023-06-22T05:41:17;8.50;;;4.90;;
17422;SDS011;8829;47.932;7.810;2023-06-22T05:43:44;13.83;;;5.27;;
17422;SDS011;8829;47.932;7.810;2023-06-22T05:46:12;14.77;;;5.83;;
17422;SDS011;8829;47.932;7.810;2023-06-22T05:48:39;10.07;;;6.13;;
17422;SDS011;8829;47.932;7.810;2023-06-22T05:51:05;8.93;;;4.60;;
17422;SDS011;8829;47.932;7.810;2023-06-22T05:53:32;7.63;;;5.03;;
17422;SDS011;8829;47.932;7.810;2023-06-22T05:55:59;9.27;;;5.10;;
17422;SDS011;8829;47.932;7.810;2023-06-22T05:58:26;8.17;;;4.83;;
17422;SDS011;8829;47.932;7.810;2023-06-22T06:00:52;7.30;;;5.10;;
17422;SDS011;8829;47.932;7.810;2023-06-22T06:03:21;13.60;;;6.13;;
17422;SDS011;8829;47.932;7.810;2023-06-22T06:05:48;7.33;;;5.50;;
17422;SDS011;8829;47.932;7.810;2023-06-22T06:08:15;10.20;;;6.60;;
17422;SDS011;8829;47.932;7.810;2023-06-22T06:10:42;10.13;;;6.70;;
17422;SDS011;8829;47.932;7.810;2023-06-22T06:13:08;9.67;;;7.17;;
17422;SDS011;8829;47.932;7.810;2023-06-22T06:15:35;11.60;;;7.27;;
17422;SDS011;8829;47.932;7.810;2023-06-22T06:18:01;10.37;;;6.73;;
17422;SDS011;8829;47.932;7.810;2023-06-22T06:20:31;12.03;;;8.07;;
17422;SDS011;8829;47.932;7.810;2023-06-22T06:22:58;7.47;;;6.47;;
17422;SDS011;8829;47.932;7.810;2023-06-22T06:25:25;10.37;;;6.97;;
17422;SDS011;8829;47.932;7.810;2023-06-22T06:27:52;10.57;;;6.47;;
17422;SDS011;8829;47.932;7.810;2023-06-22T06:30:20;7.63;;;6.13;;
17422;SDS011;8829;47.932;7.810;2023-06-22T06:32:47;8.73;;;6.00;;
17422;SDS011;8829;47.932;7.810;2023-06-22T06:35:14;13.00;;;6.07;;
17422;SDS011;8829;47.932;7.810;2023-06-22T06:37:44;8.73;;;6.47;;
17422;SDS011;8829;47.932;7.810;2023-06-22T06:40:12;6.53;;;5.80;;
17422;SDS011;8829;47.932;7.810;2023-06-22T06:42:41;9.70;;;5.70;;
17422;SDS011;8829;47.932;7.810;2023-06-22T06:45:11;8.60;;;5.23;;
17422;SDS011;8829;47.932;7.810;2023-06-22T06:47:38;10.77;;;5.07;;
17422;SDS011;8829;47.932;7.810;2023-06-22T06:50:06;5.53;;;5.03;;
17422;SDS011;8829;47.932;7.810;2023-06-22T06:52:33;8.13;;;5.20;;
17422;SDS011;8829;47.932;7.810;2023-06-22T06:55:01;7.77;;;5.47;;
17422;SDS011;8829;47.932;7.810;2023-06-22T06:57:30;10.03;;;6.03;;
17422;SDS011;8829;47.932;7.810;2023-06-22T06:59:58;10.10;;;5.60;;
17422;SDS011;8829;47.932;7.810;2023-06-22T07:02:26;10.40;;;5.70;;
17422;SDS011;8829;47.932;7.810;2023-06-22T07:04:54;7.17;;;4.43;;
17422;SDS011;8829;47.932;7.810;2023-06-22T07:07:21;8.10;;;4.87;;
17422;SDS011;8829;47.932;7.810;2023-06-22T07:09:48;5.60;;;4.27;;
17422;SDS011;8829;47.932;7.810;2023-06-22T07:12:16;7.00;;;4.67;;
17422;SDS011;8829;47.932;7.810;2023-06-22T07:14:42;11.47;;;6.13;;
17422;SDS011;8829;47.932;7.810;2023-06-22T07:17:09;4.80;;;4.20;;
17422;SDS011;8829;47.932;7.810;2023-06-22T07:19:36;7.20;;;4.23;;
17422;SDS011;8829;47.932;7.810;2023-06-22T07:22:02;9.90;;;4.70;;
17422;SDS011;8829;47.932;7.810;2023-06-22T07:24:30;6.20;;;4.67;;
17422;SDS011;8829;47.932;7.810;2023-06-22T07:26:57;8.53;;;4.60;;
17422;SDS011;8829;47.932;7.810;2023-06-22T07:29:26;6.33;;;4.90;;
17422;SDS011;8829;47.932;7.810;2023-06-22T07:31:52;8.53;;;5.47;;
17422;SDS011;8829;47.932;7.810;2023-06-22T07:34:21;8.53;;;4.67;;
17422;SDS011;8829;47.932;7.810;2023-06-22T07:36:48;8.73;;;5.17;;
17422;SDS011;8829;47.932;7.810;2023-06-22T07:39:15;6.77;;;5.43;;
17422;SDS011;8829;47.932;7.810;2023-06-22T07:41:42;7.83;;;5.47;;
17422;SDS011;8829;47.932;7.810;2023-06-22T07:44:08;8.27;;;5.60;;
17422;SDS011;8829;47.932;7.810;2023-06-22T07:46:36;9.03;;;5.43;;
17422;SDS011;8829;47.932;7.810;2023-06-22T07:49:03;7.47;;;5.57;;
17422;SDS011;8829;47.932;7.810;2023-06-22T07:51:30;10.73;;;5.00;;
17422;SDS011;8829;47.932;7.810;2023-06-22T07:53:56;8.27;;;4.80;;
17422;SDS011;8829;47.932;7.810;2023-06-22T07:56:23;8.00;;;4.70;;
17422;SDS011;8829;47.932;7.810;2023-06-22T07:58:50;6.63;;;4.60;;
17422;SDS011;8829;47.932;7.810;2023-06-22T08:01:18;6.50;;;4.17;;
17422;SDS011;8829;47.932;7.810;2023-06-22T08:03:47;7.43;;;4.90;;
17422;SDS011;8829;47.932;7.810;2023-06-22T08:06:14;8.27;;;4.10;;
17422;SDS011;8829;47.932;7.810;2023-06-22T08:08:41;9.63;;;4.88;;
17422;SDS011;8829;47.932;7.810;2023-06-22T08:11:08;8.00;;;4.78;;
17422;SDS011;8829;47.932;7.810;2023-06-22T08:13:35;6.72;;;4.97;;
17422;SDS011;8829;47.932;7.810;2023-06-22T08:16:02;9.20;;;5.07;;
17422;SDS011;8829;47.932;7.810;2023-06-22T08:18:28;7.22;;;5.15;;
17422;SDS011;8829;47.932;7.810;2023-06-22T08:20:57;11.05;;;5.35;;
17422;SDS011;8829;47.932;7.810;2023-06-22T08:23:23;8.32;;;4.82;;
17422;SDS011;8829;47.932;7.810;2023-06-22T08:25:50;8.18;;;4.65;;
17422;SDS011;8829;47.932;7.810;2023-06-22T08:28:17;10.85;;;5.22;;
17422;SDS011;8829;47.932;7.810;2023-06-22T08:30:43;9.93;;;4.63;;
17422;SDS011;8829;47.932;7.810;2023-06-22T08:33:10;8.82;;;5.00;;
17422;SDS011;8829;47.932;7.810;2023-06-22T08:35:37;6.93;;;4.57;;
17422;SDS011;8829;47.932;7.810;2023-06-22T08:38:05;6.07;;;4.82;;
17422;SDS011;8829;47.932;7.810;2023-06-22T08:40:32;8.25;;;5.07;;
17422;SDS011;8829;47.932;7.810;2023-06-22T08:42:59;9.52;;;4.97;;
17422;SDS011;8829;47.932;7.810;2023-06-22T08:45:26;8.45;;;5.32;;
17422;SDS011;8829;47.932;7.810;2023-06-22T08:47:52;12.75;;;5.13;;
17422;SDS011;8829;47.932;7.810;2023-06-22T08:50:19;5.53;;;4.88;;
17422;SDS011;8829;47.932;7.810;2023-06-22T08:52:46;8.70;;;4.97;;
17422;SDS011;8829;47.932;7.810;2023-06-22T08:55:14;12.57;;;5.60;;
17422;SDS011;8829;47.932;7.810;2023-06-22T08:57:40;7.47;;;5.15;;
17422;SDS011;8829;47.932;7.810;2023-06-22T09:00:08;9.20;;;4.97;;
17422;SDS011;8829;47.932;7.810;2023-06-22T09:02:41;7.22;;;5.10;;
17422;SDS011;8829;47.932;7.810;2023-06-22T09:05:08;8.13;;;4.90;;
17422;SDS011;8829;47.932;7.810;2023-06-22T09:07:35;6.40;;;4.10;;
17422;SDS011;8829;47.932;7.810;2023-06-22T09:10:02;8.20;;;4.27;;
17422;SDS011;8829;47.932;7.810;2023-06-22T09:12:31;7.22;;;4.47;;
17422;SDS011;8829;47.932;7.810;2023-06-22T09:14:59;11.82;;;5.35;;
17422;SDS011;8829;47.932;7.810;2023-06-22T09:17:26;9.73;;;4.15;;
17422;SDS011;8829;47.932;7.810;2023-06-22T09:19:53;8.70;;;4.45;;
17422;SDS011;8829;47.932;7.810;2023-06-22T09:22:20;9.85;;;4.40;;
17422;SDS011;8829;47.932;7.810;2023-06-22T09:24:47;7.30;;;4.53;;
17422;SDS011;8829;47.932;7.810;2023-06-22T09:27:13;9.23;;;4.70;;
17422;SDS011;8829;47.932;7.810;2023-06-22T09:29:41;10.10;;;5.03;;
17422;SDS011;8829;47.932;7.810;2023-06-22T09:32:08;10.03;;;4.57;;
17422;SDS011;8829;47.932;7.810;2023-06-22T09:34:35;10.15;;;4.63;;
17422;SDS011;8829;47.932;7.810;2023-06-22T09:37:01;6.85;;;4.45;;
17422;SDS011;8829;47.932;7.810;2023-06-22T09:39:28;8.50;;;4.50;;
17422;SDS011;8829;47.932;7.810;2023-06-22T09:41:55;6.77;;;4.77;;
17422;SDS011;8829;47.932;7.810;2023-06-22T09:44:24;13.67;;;5.33;;
17422;SDS011;8829;47.932;7.810;2023-06-22T09:46:52;8.35;;;5.07;;
17422;SDS011;8829;47.932;7.810;2023-06-22T09:49:19;8.35;;;4.75;;
17422;SDS011;8829;47.932;7.810;2023-06-22T09:51:45;9.43;;;4.93;;
17422;SDS011;8829;47.932;7.810;2023-06-22T09:54:12;10.25;;;4.93;;
17422;SDS011;8829;47.932;7.810;2023-06-22T09:56:39;10.95;;;4.85;;
17422;SDS011;8829;47.932;7.810;2023-06-22T09:59:06;6.57;;;4.75;;
17422;SDS011;8829;47.932;7.810;2023-06-22T10:01:32;6.40;;;4.82;;
17422;SDS011;8829;47.932;7.810;2023-06-22T10:04:01;7.60;;;4.25;;
17422;SDS011;8829;47.932;7.810;2023-06-22T10:06:28;9.55;;;5.07;;
17422;SDS011;8829;47.932;7.810;2023-06-22T10:08:55;8.82;;;4.63;;
17422;SDS011;8829;47.932;7.810;2023-06-22T10:11:22;10.10;;;5.00;;
17422;SDS011;8829;47.932;7.810;2023-06-22T10:13:54;7.97;;;5.03;;
17422;SDS011;8829;47.932;7.810;2023-06-22T10:16:23;12.10;;;4.57;;
17422;SDS011;8829;47.932;7.810;2023-06-22T10:18:51;6.45;;;4.55;;
17422;SDS011;8829;47.932;7.810;2023-06-22T10:21:19;10.82;;;4.85;;
17422;SDS011;8829;47.932;7.810;2023-06-22T10:23:46;7.40;;;4.65;;
17422;SDS011;8829;47.932;7.810;2023-06-22T10:26:13;6.40;;;4.65;;
17422;SDS011;8829;47.932;7.810;2023-06-22T10:28:39;5.85;;;4.85;;
17422;SDS011;8829;47.932;7.810;2023-06-22T10:31:06;8.80;;;5.22;;
17422;SDS011;8829;47.932;7.810;2023-06-22T10:33:33;11.75;;;5.30;;
17422;SDS011;8829;47.932;7.810;2023-06-22T10:35:59;9.27;;;5.43;;
17422;SDS011;8829;47.932;7.810;2023-06-22T10:38:27;6.03;;;5.00;;
17422;SDS011;8829;47.932;7.810;2023-06-22T10:40:54;12.85;;;5.85;;
17422;SDS011;8829;47.932;7.810;2023-06-22T10:43:20;13.43;;;5.50;;
17422;SDS011;8829;47.932;7.810;2023-06-22T10:45:47;9.30;;;5.55;;
17422;SDS011;8829;47.932;7.810;2023-06-22T10:48:14;10.15;;;4.90;;
17422;SDS011;8829;47.932;7.810;2023-06-22T10:50:40;10.07;;;5.38;;
17422;SDS011;8829;47.932;7.810;2023-06-22T10:53:07;6.68;;;5.60;;
17422;SDS011;8829;47.932;7.810;2023-06-22T10:55:35;6.25;;;5.45;;
17422;SDS011;8829;47.932;7.810;2023-06-22T10:58:02;6.55;;;4.80;;
17422;SDS011;8829;47.932;7.810;2023-06-22T11:00:29;17.83;;;5.80;;
17422;SDS011;8829;47.932;7.810;2023-06-22T11:02:55;7.50;;;5.15;;
17422;SDS011;8829;47.932;7.810;2023-06-22T11:05:23;11.68;;;6.05;;
17422;SDS011;8829;47.932;7.810;2023-06-22T11:07:50;10.27;;;5.38;;
17422;SDS011;8829;47.932;7.810;2023-06-22T11:10:16;9.00;;;6.10;;
17422;SDS011;8829;47.932;7.810;2023-06-22T11:12:44;9.13;;;6.38;;
17422;SDS011;8829;47.932;7.810;2023-06-22T11:15:11;16.63;;;6.40;;
17422;SDS011;8829;47.932;7.810;2023-06-22T11:17:38;9.35;;;5.50;;
17422;SDS011;8829;47.932;7.810;2023-06-22T11:20:05;7.10;;;5.80;;
17422;SDS011;8829;47.932;7.810;2023-06-22T11:22:36;10.75;;;5.90;;
17422;SDS011;8829;47.932;7.810;2023-06-22T11:25:04;9.63;;;6.47;;
17422;SDS011;8829;47.932;7.810;2023-06-22T11:27:31;10.35;;;5.45;;
17422;SDS011;8829;47.932;7.810;2023-06-22T11:30:00;14.82;;;6.15;;
17422;SDS011;8829;47.932;7.810;2023-06-22T11:32:27;8.20;;;5.97;;
17422;SDS011;8829;47.932;7.810;2023-06-22T11:34:54;9.57;;;5.75;;
17422;SDS011;8829;47.932;7.810;2023-06-22T11:37:20;10.27;;;6.05;;
17422;SDS011;8829;47.932;7.810;2023-06-22T11:39:47;10.25;;;5.68;;
17422;SDS011;8829;47.932;7.810;2023-06-22T11:42:14;8.35;;;6.03;;
17422;SDS011;8829;47.932;7.810;2023-06-22T11:44:41;16.17;;;6.60;;
17422;SDS011;8829;47.932;7.810;2023-06-22T11:47:09;11.20;;;6.13;;
17422;SDS011;8829;47.932;7.810;2023-06-22T11:49:36;11.82;;;6.00;;
17422;SDS011;8829;47.932;7.810;2023-06-22T11:52:03;11.35;;;7.28;;
17422;SDS011;8829;47.932;7.810;2023-06-22T11:54:30;11.27;;;6.03;;
17422;SDS011;8829;47.932;7.810;2023-06-22T11:56:56;9.93;;;6.70;;
17422;SDS011;8829;47.932;7.810;2023-06-22T11:59:25;11.93;;;6.68;;
17422;SDS011;8829;47.932;7.810;2023-06-22T12:01:51;10.70;;;7.68;;
17422;SDS011;8829;47.932;7.810;2023-06-22T12:04:19;8.75;;;6.90;;
17422;SDS011;8829;47.932;7.810;2023-06-22T12:06:46;8.20;;;5.97;;
17422;SDS011;8829;47.932;7.810;2023-06-22T12:09:13;11.70;;;6.40;;
17422;SDS011;8829;47.932;7.810;2023-06-22T12:11:40;14.88;;;7.45;;
17422;SDS011;8829;47.932;7.810;2023-06-22T12:14:06;8.00;;;6.20;;
17422;SDS011;8829;47.932;7.810;2023-06-22T12:16:33;13.30;;;6.32;;
17422;SDS011;8829;47.932;7.810;2023-06-22T12:19:00;9.93;;;5.55;;
17422;SDS011;8829;47.932;7.810;2023-06-22T12:21:28;11.20;;;6.63;;
17422;SDS011;8829;47.932;7.810;2023-06-22T12:23:55;9.85;;;6.05;;
17422;SDS011;8829;47.932;7.810;2023-06-22T12:26:21;12.32;;;6.50;;
17422;SDS011;8829;47.932;7.810;2023-06-22T12:28:48;14.45;;;6.47;;
17422;SDS011;8829;47.932;7.810;2023-06-22T12:31:15;9.65;;;6.05;;
17422;SDS011;8829;47.932;7.810;2023-06-22T12:33:41;11.25;;;5.47;;
17422;SDS011;8829;47.932;7.810;2023-06-22T12:36:08;12.95;;;5.93;;
17422;SDS011;8829;47.932;7.810;2023-06-22T12:38:36;13.18;;;6.20;;
17422;SDS011;8829;47.932;7.810;2023-06-22T12:41:03;12.63;;;6.03;;
17422;SDS011;8829;47.932;7.810;2023-06-22T12:43:30;7.75;;;4.63;;
17422;SDS011;8829;47.932;7.810;2023-06-22T12:45:56;12.68;;;4.70;;
17422;SDS011;8829;47.932;7.810;2023-06-22T12:48:25;12.25;;;4.68;;
17422;SDS011;8829;47.932;7.810;2023-06-22T12:50:52;10.25;;;4.47;;
17422;SDS011;8829;47.932;7.810;2023-06-22T12:53:18;10.02;;;4.18;;
17422;SDS011;8829;47.932;7.810;2023-06-22T12:55:48;10.77;;;3.83;;
17422;SDS011;8829;47.932;7.810;2023-06-22T12:58:15;15.95;;;4.90;;
17422;SDS011;8829;47.932;7.810;2023-06-22T13:00:42;10.07;;;4.47;;
17422;SDS011;8829;47.932;7.810;2023-06-22T13:03:08;8.93;;;3.97;;
17422;SDS011;8829;47.932;7.810;2023-06-22T13:05:35;14.10;;;4.18;;
17422;SDS011;8829;47.932;7.810;2023-06-22T13:08:03;13.38;;;4.45;;
17422;SDS011;8829;47.932;7.810;2023-06-22T13:10:30;12.15;;;4.43;;
17422;SDS011;8829;47.932;7.810;2023-06-22T13:12:58;9.60;;;4.57;;
17422;SDS011;8829;47.932;7.810;2023-06-22T13:15:26;7.25;;;4.15;;
17422;SDS011;8829;47.932;7.810;2023-06-22T13:17:53;14.00;;;4.82;;
17422;SDS011;8829;47.932;7.810;2023-06-22T13:20:20;11.60;;;4.55;;
17422;SDS011;8829;47.932;7.810;2023-06-22T13:22:46;10.70;;;4.80;;
17422;SDS011;8829;47.932;7.810;2023-06-22T13:25:13;9.05;;;4.40;;
17422;SDS011;8829;47.932;7.810;2023-06-22T13:27:44;8.98;;;4.07;;
17422;SDS011;8829;47.932;7.810;2023-06-22T13:30:12;11.68;;;4.20;;
17422;SDS011;8829;47.932;7.810;2023-06-22T13:32:39;10.68;;;4.60;;
17422;SDS011;8829;47.932;7.810;2023-06-22T13:35:07;7.82;;;4.25;;
17422;SDS011;8829;47.932;7.810;2023-06-22T13:37:35;10.35;;;3.90;;
17422;SDS011;8829;47.932;7.810;2023-06-22T13:40:02;8.63;;;4.25;;
17422;SDS011;8829;47.932;7.810;2023-06-22T13:42:31;8.88;;;4.00;;
17422;SDS011;8829;47.932;7.810;2023-06-22T13:44:58;11.25;;;4.68;;
17422;SDS011;8829;47.932;7.810;2023-06-22T13:47:26;6.57;;;3.85;;
17422;SDS011;8829;47.932;7.810;2023-06-22T13:49:52;9.30;;;4.20;;
17422;SDS011;8829;47.932;7.810;2023-06-22T13:52:20;7.50;;;4.13;;
17422;SDS011;8829;47.932;7.810;2023-06-22T13:54:46;14.02;;;4.63;;
17422;SDS011;8829;47.932;7.810;2023-06-22T13:57:13;14.20;;;4.53;;
17422;SDS011;8829;47.932;7.810;2023-06-22T13:59:40;8.50;;;4.15;;
17422;SDS011;8829;47.932;7.810;2023-06-22T14:02:06;9.82;;;4.10;;
17422;SDS011;8829;47.932;7.810;2023-06-22T14:04:34;8.95;;;4.38;;
17422;SDS011;8829;47.932;7.810;2023-06-22T14:07:01;10.27;;;4.05;;
17422;SDS011;8829;47.932;7.810;2023-06-22T14:09:28;9.50;;;3.85;;
17422;SDS011;8829;47.932;7.810;2023-06-22T14:11:55;9.00;;;4.40;;
17422;SDS011;8829;47.932;7.810;2023-06-22T14:14:21;12.57;;;4.47;;
17422;SDS011;8829;47.932;7.810;2023-06-22T14:16:48;12.00;;;4.32;;
17422;SDS011;8829;47.932;7.810;2023-06-22T14:19:16;10.00;;;4.20;;
17422;SDS011;8829;47.932;7.810;2023-06-22T14:21:44;8.90;;;4.57;;
17422;SDS011;8829;47.932;7.810;2023-06-22T14:24:11;10.87;;;4.57;;
17422;SDS011;8829;47.932;7.810;2023-06-22T14:26:37;14.93;;;5.13;;
17422;SDS011;8829;47.932;7.810;2023-06-22T14:29:04;7.43;;;4.30;;
17422;SDS011;8829;47.932;7.810;2023-06-22T14:31:31;8.27;;;4.23;;
17422;SDS011;8829;47.932;7.810;2023-06-22T14:33:57;8.47;;;4.03;;
17422;SDS011;8829;47.932;7.810;2023-06-22T14:36:24;8.77;;;4.60;;
17422;SDS011;8829;47.932;7.810;2023-06-22T14:38:52;6.72;;;4.10;;
17422;SDS011;8829;47.932;7.810;2023-06-22T14:41:19;9.20;;;4.43;;
17422;SDS011;8829;47.932;7.810;2023-06-22T14:43:46;9.13;;;4.40;;
17422;SDS011;8829;47.932;7.810;2023-06-22T14:46:13;6.53;;;4.07;;
17422;SDS011;8829;47.932;7.810;2023-06-22T14:48:40;8.77;;;3.95;;
17422;SDS011;8829;47.932;7.810;2023-06-22T14:51:07;9.15;;;4.25;;
17422;SDS011;8829;47.932;7.810;2023-06-22T14:53:34;8.93;;;3.92;;
17422;SDS011;8829;47.932;7.810;2023-06-22T14:56:02;8.60;;;4.22;;
17422;SDS011;8829;47.932;7.810;2023-06-22T14:58:30;7.07;;;4.10;;